Time;durP1;ratioP1;P1;durP2;ratioP2;P2;SDS_P1;SDS_P2;PMS_P1;PMS_P2;Temp;Humidity;BMP_temperature;BMP_pressure;BME280_temperature;BME280_humidity;BME280_pressure;Samples;Min_cycle;Max_cycle;Signal;HPM_P1;HPM_P2
2021/10/23 00:01:36;;;;;;;20.80;16.33;;;;;;;;;;4870606;29;20454;-91
2021/10/23 00:04:02;;;;;;;21.40;15.83;;;;;;;;;;4887076;29;20813;-91
2021/10/23 00:06:28;;;;;;;21.27;17.93;;;8.30;99.90;;;;;;4869310;29;20422;-91
2021/10/23 00:08:56;;;;;;;20.50;17.10;;;11.20;99.90;;;;;;4887032;29;20482;-90
2021/10/23 00:11:22;;;;;;;24.02;15.65;;;;;;;;;;4873213;29;20206;-90
2021/10/23 00:13:48;;;;;;;19.77;16.17;;;;;;;;;;4893913;29;20185;-92
2021/10/23 00:16:14;;;;;;;19.80;17.57;;;;;;;;;;4879156;29;20453;-91
2021/10/23 00:18:40;;;;;;;20.60;15.20;;;;;;;;;;4882617;29;20441;-91
2021/10/23 00:21:06;;;;;;;19.03;16.57;;;;;;;;;;4895757;29;20414;-90
2021/10/23 00:23:35;;;;;;;19.75;17.10;;;8.50;99.90;;;;;;4878944;29;20503;-91
2021/10/23 00:26:01;;;;;;;25.00;17.87;;;11.10;99.90;;;;;;4888567;29;20169;-92
2021/10/23 00:28:27;;;;;;;27.80;18.07;;;;;;;;;;4872076;29;20947;-91
2021/10/23 00:30:53;;;;;;;29.17;17.33;;;;;;;;;;4871840;29;20248;-91
2021/10/23 00:33:19;;;;;;;26.08;18.55;;;8.50;99.90;;;;;;4871927;29;20414;-92
2021/10/23 00:35:45;;;;;;;21.40;18.17;;;;;;;;;;4871006;29;20220;-92
2021/10/23 00:38:11;;;;;;;28.87;19.30;;;;;;;;;;4871039;29;20174;-89
2021/10/23 00:40:39;;;;;;;25.97;19.13;;;8.40;99.90;;;;;;4871470;29;20426;-92
2021/10/23 00:43:05;;;;;;;33.33;19.90;;;;;;;;;;4871301;29;20505;-92
2021/10/23 00:45:31;;;;;;;35.00;20.27;;;8.40;99.90;;;;;;4870478;29;20418;-92
2021/10/23 00:47:57;;;;;;;33.00;20.87;;;;;;;;;;4889630;29;20444;-92
2021/10/23 00:50:23;;;;;;;36.77;22.40;;;;;;;;;;4878040;29;20188;-91
2021/10/23 00:52:50;;;;;;;34.83;21.45;;;8.30;99.90;;;;;;4878067;29;20813;-91
2021/10/23 00:55:18;;;;;;;32.27;21.17;;;10.10;99.90;;;;;;4881466;29;20177;-91
2021/10/23 00:57:44;;;;;;;34.83;22.77;;;10.60;99.90;;;;;;4897002;29;20418;-90
2021/10/23 01:00:10;;;;;;;30.27;21.37;;;9.60;99.90;;;;;;4880468;29;20455;-91
2021/10/23 01:02:36;;;;;;;35.87;22.90;;;;;;;;;;4880161;29;20217;-91
2021/10/23 01:05:04;;;;;;;26.00;21.13;;;8.40;99.90;;;;;;4897536;29;20410;-89
2021/10/23 01:07:34;;;;;;;28.80;21.43;;;8.40;99.90;;;;;;4875803;29;20438;-92
2021/10/23 01:10:01;;;;;;;37.93;22.10;;;8.40;99.90;;;;;;4871347;29;20426;-92
2021/10/23 01:12:29;;;;;;;28.63;21.50;;;;;;;;;;4870409;29;20433;-91
2021/10/23 01:14:55;;;;;;;32.57;19.53;;;;;;;;;;4872609;29;20743;-92
2021/10/23 01:17:22;;;;;;;25.83;18.77;;;8.50;99.90;;;;;;4886513;29;20428;-92
2021/10/23 01:19:54;;;;;;;19.67;16.65;;;11.00;99.90;;;;;;4871311;29;20410;-92
2021/10/23 01:22:35;;;;;;;18.60;14.67;;;7.80;99.90;;;;;;4885736;29;20292;-92
2021/10/23 01:25:03;;;;;;;21.80;15.80;;;;;;;;;;4871266;29;20418;-92
2021/10/23 01:27:29;;;;;;;22.80;15.77;;;;;;;;;;4871847;29;20425;-92
2021/10/23 01:29:55;;;;;;;24.63;16.20;;;8.90;99.90;;;;;;4871894;29;20414;-91
2021/10/23 01:32:21;;;;;;;22.17;17.30;;;;;;;;;;4875482;29;20245;-91
2021/10/23 01:34:47;;;;;;;23.50;17.63;;;8.90;99.90;;;;;;4874368;29;20189;-92
2021/10/23 01:37:14;;;;;;;27.10;18.77;;;7.50;99.90;;;;;;4873150;29;20425;-92
2021/10/23 01:39:40;;;;;;;23.50;18.13;;;10.70;99.90;;;;;;4875094;29;20173;-92
2021/10/23 01:42:06;;;;;;;24.50;18.80;;;;;;;;;;4873393;29;20961;-90
2021/10/23 01:44:37;;;;;;;25.50;18.47;;;8.70;99.90;;;;;;4886868;29;20501;-91
2021/10/23 01:47:06;;;;;;;25.90;19.50;;;9.10;99.90;;;;;;4871768;29;20464;-91
2021/10/23 01:49:32;;;;;;;26.30;18.83;;;;;;;;;;4887093;29;20430;-91
2021/10/23 01:52:01;;;;;;;25.70;18.20;;;9.60;99.90;;;;;;4873228;29;20562;-91
2021/10/23 01:54:29;;;;;;;24.70;17.63;;;;;;;;;;4876969;29;20426;-91
2021/10/23 01:56:55;;;;;;;26.47;19.97;;;8.90;99.90;;;;;;4892639;29;20406;-91
2021/10/23 01:59:23;;;;;;;26.13;19.33;;;10.40;99.90;;;;;;4876603;29;20425;-92
2021/10/23 02:01:49;;;;;;;29.93;19.30;;;;;;;;;;4890515;29;20481;-92
2021/10/23 02:04:15;;;;;;;29.73;22.00;;;;;;;;;;4892391;29;20413;-92
2021/10/23 02:06:41;;;;;;;34.83;22.70;;;;;;;;;;4875506;29;20432;-92
2021/10/23 02:09:07;;;;;;;27.90;23.30;;;;;;;;;;4872946;29;20433;-91
2021/10/23 02:11:33;;;;;;;39.80;24.03;;;;;;;;;;4873468;29;20821;-92
2021/10/23 02:13:59;;;;;;;29.70;22.83;;;;;;;;;;4874118;29;20453;-92
2021/10/23 02:16:25;;;;;;;30.67;21.03;;;;;;;;;;4873940;29;20426;-91
2021/10/23 02:18:51;;;;;;;31.10;23.92;;;;;;;;;;4873626;29;20514;-91
2021/10/23 02:21:17;;;;;;;37.17;24.30;;;8.70;99.90;;;;;;4872963;29;20181;-91
2021/10/23 02:23:43;;;;;;;43.70;23.40;;;9.90;99.90;;;;;;4874591;29;21013;-91
2021/10/23 02:26:09;;;;;;;35.40;24.73;;;;;;;;;;4869669;29;20432;-90
2021/10/23 02:28:35;;;;;;;40.93;24.67;;;8.50;99.90;;;;;;4871578;29;20177;-91
2021/10/23 02:31:01;;;;;;;34.13;25.30;;;7.90;99.90;;;;;;4871657;29;20417;-91
2021/10/23 02:33:27;;;;;;;41.40;25.60;;;;;;;;;;4894564;29;20421;-90
2021/10/23 02:35:53;;;;;;;37.55;24.02;;;;;;;;;;4878582;29;20192;-90
2021/10/23 02:38:19;;;;;;;37.22;24.92;;;;;;;;;;4891124;29;20172;-90
2021/10/23 02:40:46;;;;;;;39.92;26.10;;;;;;;;;;4889997;29;20169;-92
2021/10/23 02:43:12;;;;;;;40.65;27.73;;;;;;;;;;4870853;29;20631;-91
2021/10/23 02:45:37;;;;;;;36.40;26.83;;;8.50;99.90;;;;;;4872638;29;20236;-91
2021/10/23 02:48:03;;;;;;;36.90;27.97;;;6.80;99.90;;;;;;4891476;29;20517;-92
2021/10/23 02:50:29;;;;;;;47.93;27.07;;;;;;;;;;4871998;29;20226;-92
2021/10/23 02:52:55;;;;;;;40.10;27.30;;;;;;;;;;4870594;29;20422;-92
2021/10/23 02:55:22;;;;;;;39.67;26.43;;;;;;;;;;4871968;29;20438;-92
2021/10/23 02:57:48;;;;;;;41.07;27.80;;;8.60;99.90;;;;;;4873445;29;20476;-92
2021/10/23 03:00:14;;;;;;;46.77;27.13;;;11.40;99.90;;;;;;4876326;29;20422;-92
2021/10/23 03:02:40;;;;;;;39.90;25.93;;;11.10;99.90;;;;;;4876737;29;20461;-92
2021/10/23 03:05:06;;;;;;;41.13;24.33;;;;;;;;;;4874043;29;20430;-92
2021/10/23 03:07:33;;;;;;;44.88;26.08;;;;;;;;;;4876339;29;20434;-91
2021/10/23 03:09:59;;;;;;;36.90;25.67;;;;;;;;;;4889036;29;20261;-91
2021/10/23 03:12:26;;;;;;;43.65;26.45;;;8.70;99.90;;;;;;4890514;29;20477;-92
2021/10/23 03:14:52;;;;;;;40.03;27.63;;;10.50;99.90;;;;;;4874455;29;20185;-92
2021/10/23 03:17:19;;;;;;;42.87;27.07;;;;;;;;;;4891464;29;20418;-91
2021/10/23 03:19:45;;;;;;;48.23;30.30;;;;;;;;;;4874522;29;20429;-92
2021/10/23 03:22:11;;;;;;;46.53;29.27;;;;;;;;;;4873437;29;21060;-91
2021/10/23 03:24:37;;;;;;;44.50;28.17;;;;;;;;;;4892682;29;20477;-91
2021/10/23 03:27:03;;;;;;;48.23;29.77;;;8.70;99.90;;;;;;4878783;29;20485;-91
2021/10/23 03:29:29;;;;;;;58.00;32.00;;;;;;;;;;4880119;29;20516;-91
2021/10/23 03:31:56;;;;;;;47.63;30.00;;;8.70;99.90;;;;;;4881512;29;20430;-91
2021/10/23 03:34:23;;;;;;;47.63;30.13;;;9.90;99.90;;;;;;4897482;29;20442;-93
2021/10/23 03:36:49;;;;;;;48.30;29.73;;;;;;;;;;4878421;29;21034;-91
2021/10/23 03:39:16;;;;;;;48.80;28.37;;;;;;;;;;4875763;29;20421;-92
2021/10/23 03:41:41;;;;;;;43.83;30.93;;;8.90;99.90;;;;;;4873886;29;20441;-91
2021/10/23 03:44:08;;;;;;;46.97;30.10;;;;;;;;;;4873389;29;20813;-91
2021/10/23 03:46:34;;;;;;;59.03;34.43;;;;;;;;;;4892410;29;20226;-91
2021/10/23 03:49:01;;;;;;;55.87;32.60;;;;;;;;;;4891404;29;20421;-92
2021/10/23 03:51:27;;;;;;;50.07;29.70;;;8.70;99.90;;;;;;4879212;29;20418;-92
2021/10/23 03:53:53;;;;;;;51.53;33.23;;;;;;;;;;4877624;29;20516;-92
2021/10/23 03:56:19;;;;;;;53.27;32.97;;;;;;;;;;4875029;29;20418;-90
2021/10/23 03:58:45;;;;;;;61.47;33.90;;;;;;;;;;4874726;29;20429;-92
2021/10/23 04:01:12;;;;;;;62.53;33.90;;;8.80;99.90;;;;;;4876804;29;20418;-91
2021/10/23 04:03:38;;;;;;;65.67;34.90;;;;;;;;;;4876003;29;20506;-92
2021/10/23 04:06:05;;;;;;;56.85;32.70;;;8.80;99.90;;;;;;4874625;29;20474;-91
2021/10/23 04:08:38;;;;;;;55.70;34.00;;;8.90;99.90;;;;;;4879174;29;20272;-91
2021/10/23 04:11:04;;;;;;;67.77;35.13;;;7.90;99.90;;;;;;4879887;29;20178;-90
2021/10/23 04:13:30;;;;;;;71.03;39.47;;;;;;;;;;4876932;29;20472;-91
2021/10/23 04:15:56;;;;;;;63.37;36.53;;;;;;;;;;4878492;29;20188;-90
2021/10/23 04:18:28;;;;;;;83.43;39.30;;;8.60;99.90;;;;;;4882233;29;20426;-90
2021/10/23 04:20:54;;;;;;;56.95;34.38;;;11.60;99.90;;;;;;4877877;29;20434;-92
2021/10/23 04:23:21;;;;;;;73.57;37.37;;;;;;;;;;4891741;29;20562;-91
2021/10/23 04:25:47;;;;;;;73.20;38.03;;;;;;;;;;4875684;29;20422;-91
2021/10/23 04:28:15;;;;;;;70.27;34.13;;;8.60;99.90;;;;;;4873541;29;20438;-92
2021/10/23 04:30:41;;;;;;;58.00;34.93;;;;;;;;;;4890952;29;20422;-92
2021/10/23 04:33:07;;;;;;;76.30;39.57;;;;;;;;;;4871888;29;20436;-91
2021/10/23 04:35:33;;;;;;;82.50;40.43;;;8.60;99.90;;;;;;4875432;29;20518;-91
2021/10/23 04:37:59;;;;;;;62.73;38.20;;;;;;;;;;4875889;29;20486;-91
2021/10/23 04:40:25;;;;;;;68.83;37.53;;;8.60;99.90;;;;;;4890707;29;20409;-91
2021/10/23 04:42:51;;;;;;;75.07;36.53;;;10.40;99.90;;;;;;4875318;29;20485;-90
2021/10/23 04:45:19;;;;;;;74.47;38.57;;;8.50;99.90;;;;;;4878175;29;20178;-91
2021/10/23 04:47:45;;;;;;;72.87;39.60;;;7.90;99.90;;;;;;4875351;29;20549;-92
2021/10/23 04:50:11;;;;;;;59.63;32.87;;;7.30;99.90;;;;;;4875003;29;20414;-92
2021/10/23 04:52:37;;;;;;;64.97;34.80;;;;;;;;;;4890972;29;20181;-91
2021/10/23 04:55:03;;;;;;;70.90;35.65;;;8.80;99.90;;;;;;4875957;29;20430;-91
2021/10/23 04:57:29;;;;;;;62.35;33.67;;;8.50;99.90;;;;;;4878740;29;20208;-91
2021/10/23 04:59:57;;;;;;;62.93;36.30;;;9.80;99.90;;;;;;4876450;29;20178;-91
2021/10/23 05:02:23;;;;;;;60.83;35.33;;;;;;;;;;4878260;29;20274;-90
2021/10/23 05:04:49;;;;;;;66.57;36.43;;;;;;;;;;4896341;29;20477;-92
2021/10/23 05:07:15;;;;;;;65.70;35.67;;;;;;;;;;4874978;29;20482;-92
2021/10/23 05:09:45;;;;;;;61.07;33.37;;;8.70;99.90;;;;;;4876881;29;20425;-91
2021/10/23 05:12:11;;;;;;;58.13;36.93;;;8.80;99.90;;;;;;4879089;29;20421;-91
2021/10/23 05:14:40;;;;;;;76.13;37.80;;;6.90;99.90;;;;;;4879055;29;20433;-91
2021/10/23 05:17:07;;;;;;;73.40;37.90;;;11.80;99.90;;;;;;4894805;29;20422;-92
2021/10/23 05:19:33;;;;;;;68.00;38.03;;;;;;;;;;4872423;29;20501;-91
2021/10/23 05:22:02;;;;;;;79.27;40.93;;;8.80;99.90;;;;;;4894139;29;20561;-91
2021/10/23 05:24:28;;;;;;;92.68;43.88;;;11.10;99.90;;;;;;4874579;29;20498;-92
2021/10/23 05:26:56;;;;;;;79.67;41.03;;;8.20;99.90;;;;;;4875829;29;20177;-92
2021/10/23 05:29:22;;;;;;;72.23;38.07;;;;;;;;;;4876813;29;20436;-90
2021/10/23 05:31:48;;;;;;;86.00;40.23;;;8.80;99.90;;;;;;4875923;29;20406;-88
2021/10/23 05:34:14;;;;;;;92.63;42.10;;;;;;;;;;4880522;29;20430;-91
2021/10/23 05:36:39;;;;;;;99.50;43.53;;;8.60;99.90;;;;;;4876999;29;20422;-91
2021/10/23 05:39:05;;;;;;;88.97;42.20;;;;;;;;;;4874643;29;20466;-91
2021/10/23 05:41:32;;;;;;;76.40;42.17;;;;;;;;;;4875393;29;20418;-89
2021/10/23 05:43:58;;;;;;;84.10;41.70;;;;;;;;;;4889306;29;20418;-91
2021/10/23 05:49:37;;;;;;;80.20;43.10;;;8.80;99.90;;;;;;4885017;29;20858;-92
2021/10/23 05:52:43;;;;;;;61.25;34.80;;;8.70;99.90;;;;;;4876786;29;20429;-90
2021/10/23 05:55:30;;;;;;;74.60;37.97;;;8.70;99.90;;;;;;4895111;29;20201;-92
2021/10/23 05:58:02;;;;;;;81.43;40.00;;;9.50;99.90;;;;;;4894181;29;20547;-91
2021/10/23 06:00:38;;;;;;;76.80;40.33;;;9.60;99.90;;;;;;4882894;29;20406;-90
2021/10/23 06:03:06;;;;;;;68.00;37.10;;;10.40;99.90;;;;;;4896368;29;20525;-92
2021/10/23 06:05:54;;;;;;;85.27;39.63;;;8.80;99.90;;;;;;4896502;29;20402;-90
2021/10/23 06:08:20;;;;;;;83.20;38.43;;;;;;;;;;4880938;29;20437;-91
2021/10/23 06:10:46;;;;;;;81.73;36.60;;;8.70;99.90;;;;;;4881017;29;20433;-91
2021/10/23 06:13:27;;;;;;;78.63;39.30;;;8.30;99.90;;;;;;4880386;29;20630;-91
2021/10/23 06:16:19;;;;;;;77.60;38.40;;;10.90;99.90;;;;;;4894474;29;20429;-91
2021/10/23 06:18:45;;;;;;;85.10;37.37;;;8.90;99.90;;;;;;4877325;29;20461;-90
2021/10/23 06:21:15;;;;;;;82.77;39.83;;;8.90;99.90;;;;;;4879257;29;20489;-91
2021/10/23 06:23:41;;;;;;;76.93;38.77;;;;;;;;;;4878749;29;20233;-90
2021/10/23 06:26:08;;;;;;;86.35;41.40;;;8.90;99.90;;;;;;4894689;29;20516;-89
2021/10/23 06:28:36;;;;;;;74.50;35.80;;;;;;;;;;4878599;29;20250;-89
2021/10/23 06:31:23;;;;;;;71.60;37.20;;;9.00;99.90;;;;;;4879736;29;20422;-91
2021/10/23 06:33:49;;;;;;;79.00;39.70;;;;;;;;;;4877115;29;20433;-90
2021/10/23 06:36:15;;;;;;;73.63;38.00;;;9.00;99.90;;;;;;4891921;29;20177;-91
2021/10/23 06:38:44;;;;;;;78.03;38.53;;;11.60;99.90;;;;;;4876260;29;20449;-91
2021/10/23 06:41:12;;;;;;;77.90;40.10;;;;;;;;;;4880149;29;20165;-91
2021/10/23 06:43:51;;;;;;;79.93;39.80;;;9.00;99.90;;;;;;4880642;29;20473;-91
2021/10/23 06:49:04;;;;;;;65.30;36.30;;;9.10;99.90;;;;;;4905600;23;20472;-90
2021/10/23 06:51:32;;;;;;;54.37;28.43;;;;;;;;;;4885685;29;20413;-91
2021/10/23 06:53:59;;;;;;;58.73;32.93;;;;;;;;;;4897555;29;20406;-91
2021/10/23 06:56:29;;;;;;;56.75;31.83;;;6.20;99.90;;;;;;4896726;29;20432;-89
2021/10/23 06:58:57;;;;;;;63.10;31.27;;;9.00;99.90;;;;;;4882724;29;20196;-91
2021/10/23 07:01:23;;;;;;;58.43;32.50;;;;;;;;;;4881404;29;20233;-91
2021/10/23 07:04:17;;;;;;;70.30;32.80;;;9.00;99.90;;;;;;4882533;29;20469;-91
2021/10/23 07:06:58;;;;;;;;;;;;;;;;;;;;;
2021/10/23 07:09:29;;;;;;;66.68;35.28;;;10.80;99.90;;;;;;4896172;29;20481;-92
2021/10/23 07:11:55;;;;;;;62.00;30.23;;;;;;;;;;4863137;29;20224;-91
2021/10/23 07:14:21;;;;;;;48.10;26.47;;;;;;;;;;4861893;29;20177;-93
2021/10/23 07:17:01;;;;;;;54.37;30.20;;;9.20;99.90;;;;;;4883374;29;20423;-91
2021/10/23 07:19:27;;;;;;;59.55;33.15;;;;;;;;;;4881026;29;20413;-91
2021/10/23 07:22:21;;;;;;;57.80;28.60;;;9.10;99.90;;;;;;4863607;29;20235;-92
2021/10/23 07:24:50;;;;;;;61.95;32.72;;;8.70;99.90;;;;;;4879563;29;20530;-90
2021/10/23 07:27:26;;;;;;;60.63;33.33;;;10.40;99.90;;;;;;4882916;29;20170;-91
2021/10/23 07:30:02;;;;;;;;;;;;;;;;;;;;;
2021/10/23 07:32:41;;;;;;;63.90;34.57;;;9.10;99.90;;;;;;4860636;29;20439;-90
2021/10/23 07:35:18;;;;;;;57.80;32.90;;;9.10;99.90;;;;;;4881582;29;20468;-92
2021/10/23 07:38:00;;;;;;;47.73;27.80;;;11.40;99.90;;;;;;4880910;29;20399;-91
2021/10/23 07:40:39;;;;;;;48.90;27.93;;;10.90;99.90;;;;;;4882512;29;20166;-91
2021/10/23 07:43:39;;;;;;;50.77;27.97;;;9.60;99.90;;;;;;4881153;29;20515;-90
2021/10/23 07:46:27;;;;;;;49.70;27.47;;;7.60;99.90;;;;;;4879327;29;20429;-92
2021/10/23 07:49:15;;;;;;;48.53;28.17;;;11.70;99.90;;;;;;4858654;29;20576;-92
2021/10/23 07:51:41;;;;;;;46.00;27.10;;;12.30;99.90;;;;;;4896138;29;20429;-89
2021/10/23 07:54:08;;;;;;;50.37;30.60;;;10.00;99.90;;;;;;4898524;29;20590;-92
2021/10/23 07:56:36;;;;;;;50.67;27.63;;;10.20;99.90;;;;;;4877754;29;20178;-92
2021/10/23 07:59:03;;;;;;;45.97;26.37;;;10.60;99.90;;;;;;4878539;29;20525;-91
2021/10/23 08:01:54;;;;;;;43.73;25.27;;;7.30;99.90;;;;;;4880826;29;20432;-92
2021/10/23 08:04:20;;;;;;;44.27;25.53;;;;;;;;;;4895093;29;20479;-90
2021/10/23 08:07:22;;;;;;;45.87;24.63;;;9.90;99.90;;;;;;4878939;29;20418;-92
2021/10/23 08:10:00;;;;;;;44.30;25.87;;;10.90;99.90;;;;;;4900046;29;20496;-91
2021/10/23 08:12:29;;;;;;;45.77;25.87;;;10.10;99.90;;;;;;4891840;29;20434;-89
2021/10/23 08:14:57;;;;;;;48.63;26.53;;;9.80;99.90;;;;;;4872592;29;20465;-89
2021/10/23 08:17:26;;;;;;;48.03;27.10;;;;;;;;;;4890187;29;20425;-91
2021/10/23 08:19:56;;;;;;;44.80;25.57;;;;;;;;;;4877088;29;20422;-92
2021/10/23 08:22:27;;;;;;;45.60;28.10;;;9.80;99.90;;;;;;4879676;29;20474;-90
2021/10/23 08:25:04;;;;;;;48.70;27.20;;;9.80;99.90;;;;;;4874430;29;20425;-91
2021/10/23 08:27:43;;;;;;;48.90;26.73;;;13.00;99.90;;;;;;4896704;29;20398;-91
2021/10/23 08:30:12;;;;;;;46.97;25.60;;;12.60;99.90;;;;;;4880530;29;20414;-91
2021/10/23 08:32:38;;;;;;;50.90;27.77;;;11.10;99.90;;;;;;4881146;29;20475;-91
2021/10/23 08:35:05;;;;;;;44.40;26.97;;;8.00;99.90;;;;;;4880661;29;20482;-90
2021/10/23 08:37:31;;;;;;;43.47;26.97;;;;;;;;;;4883004;29;20438;-91
2021/10/23 08:40:00;;;;;;;37.33;25.60;;;10.60;99.90;;;;;;4877880;29;20783;-92
2021/10/23 08:42:29;;;;;;;42.87;26.43;;;10.30;99.90;;;;;;4880478;29;20493;-90
2021/10/23 08:45:02;;;;;;;38.07;25.40;;;11.00;99.90;;;;;;4895368;29;20434;-92
2021/10/23 08:47:29;;;;;;;45.30;27.33;;;15.40;99.90;;;;;;4889229;29;20472;-88
2021/10/23 08:50:05;;;;;;;36.67;22.33;;;9.80;99.90;;;;;;4888603;29;20394;-92
2021/10/23 08:52:32;;;;;;;45.67;26.00;;;;;;;;;;4882788;29;20426;-92
2021/10/23 08:55:18;;;;;;;37.77;22.50;;;11.70;99.90;;;;;;4880223;29;20430;-90
2021/10/23 08:58:00;;;;;;;40.90;23.50;;;;;;;;;;4882065;29;20485;-89
2021/10/23 09:00:34;;;;;;;41.30;24.17;;;12.80;99.90;;;;;;4898202;29;20402;-91
2021/10/23 09:03:22;;;;;;;40.23;24.50;;;13.20;99.90;;;;;;4881808;29;20476;-91
2021/10/23 09:05:48;;;;;;;35.47;23.47;;;12.90;99.90;;;;;;4879155;29;20444;-93
2021/10/23 09:08:29;;;;;;;34.13;21.07;;;12.60;99.90;;;;;;4882378;29;20485;-92
2021/10/23 09:10:57;;;;;;;43.43;22.83;;;14.00;99.90;;;;;;4892376;29;20481;-89
2021/10/23 09:13:37;;;;;;;34.27;22.90;;;16.20;99.90;;;;;;4879052;29;20414;-93
2021/10/23 09:16:22;;;;;;;33.90;21.13;;;14.40;99.90;;;;;;4876266;29;20430;-88
2021/10/23 09:18:51;;;;;;;33.10;22.70;;;15.00;98.00;;;;;;4893363;29;20458;-90
2021/10/23 09:21:22;;;;;;;30.00;21.47;;;18.00;99.60;;;;;;4879249;29;20418;-88
2021/10/23 09:24:20;;;;;;;31.60;21.97;;;17.90;94.80;;;;;;4896224;29;20241;-88
2021/10/23 09:27:12;;;;;;;27.50;21.23;;;15.10;92.10;;;;;;4879030;29;20430;-90
2021/10/23 09:29:39;;;;;;;27.67;20.40;;;17.30;90.90;;;;;;4881118;29;20430;-89
2021/10/23 09:32:08;;;;;;;24.73;19.77;;;17.20;91.20;;;;;;4895557;29;20417;-90
2021/10/23 09:34:59;;;;;;;30.80;21.17;;;18.00;85.80;;;;;;4896773;29;20409;-89
2021/10/23 09:37:48;;;;;;;29.50;19.53;;;17.70;85.60;;;;;;4897218;29;20429;-88
2021/10/23 09:40:21;;;;;;;28.43;19.80;;;17.60;83.70;;;;;;4895864;29;20441;-88
2021/10/23 09:43:47;;;;;;;26.57;19.43;;;18.10;82.50;;;;;;4872363;29;20493;-92
2021/10/23 09:46:26;;;;;;;24.13;18.77;;;18.10;76.90;;;;;;4838745;29;20436;-92
2021/10/23 09:48:57;;;;;;;23.80;18.17;;;19.00;87.10;;;;;;4831599;29;20840;-93
2021/10/23 09:51:42;;;;;;;26.37;19.90;;;18.00;86.70;;;;;;4821234;29;20451;-93
2021/10/23 09:54:30;;;;;;;23.30;16.53;;;17.00;81.00;;;;;;4856318;29;20427;-91
2021/10/23 09:57:32;;;;;;;21.33;16.50;;;15.80;80.90;;;;;;4864243;29;20439;-92
2021/10/23 10:00:09;;;;;;;24.53;18.37;;;17.20;86.70;;;;;;4857512;29;20437;-90
2021/10/23 10:03:00;;;;;;;27.10;18.00;;;13.90;90.70;;;;;;4862963;29;20458;-91
2021/10/23 10:05:40;;;;;;;;;;;;;;;;;;;;;
2021/10/23 10:08:14;;;;;;;28.00;20.17;;;15.20;93.20;;;;;;4896482;29;20483;-91
2021/10/23 10:10:49;;;;;;;27.07;19.30;;;14.70;98.80;;;;;;5014920;23;20584;-91
2021/10/23 10:16:06;;;;;;;24.47;18.33;;;14.40;94.00;;;;;;4957545;23;20485;-91
2021/10/23 10:18:57;;;;;;;23.60;16.80;;;14.50;94.90;;;;;;4551642;29;10000110;-90
2021/10/23 10:21:44;;;;;;;29.73;18.30;;;14.80;96.40;;;;;;4968320;23;20225;-92
2021/10/23 10:24:25;;;;;;;23.10;17.43;;;14.80;95.60;;;;;;5001819;23;20478;-91
2021/10/23 10:27:44;;;;;;;27.70;17.97;;;14.90;94.50;;;;;;4863286;29;20419;-90
2021/10/23 10:30:37;;;;;;;23.80;16.63;;;14.60;93.80;;;;;;4838670;29;20479;-90
2021/10/23 10:33:43;;;;;;;23.17;17.93;;;14.40;95.50;;;;;;4880781;29;20479;-92
2021/10/23 10:36:59;;;;;;;26.30;17.73;;;15.70;96.80;;;;;;4879350;29;20403;-93
2021/10/23 10:39:51;;;;;;;20.10;17.90;;;15.00;95.90;;;;;;4881020;29;20455;-89
2021/10/23 10:42:50;;;;;;;25.90;16.50;;;13.80;97.30;;;;;;4880927;29;20942;-90
2021/10/23 10:45:37;;;;;;;26.70;17.97;;;14.80;95.90;;;;;;4862130;29;20440;-91
2021/10/23 10:48:52;;;;;;;;;;;;;;;;;;;;;
2021/10/23 10:51:29;;;;;;;18.90;14.90;;;15.20;96.60;;;;;;4880432;29;20466;-92
2021/10/23 10:57:06;;;;;;;24.83;16.93;;;14.40;96.10;;;;;;4996311;23;20628;-93
2021/10/23 11:00:03;;;;;;;21.83;16.20;;;14.80;98.70;;;;;;4885208;29;20422;-91
2021/10/23 11:05:33;;;;;;;22.17;16.43;;;15.00;93.40;;;;;;5032463;23;20493;-92
2021/10/23 11:08:20;;;;;;;21.67;15.20;;;15.90;95.10;;;;;;5356629;23;20550;-93
2021/10/23 11:11:18;;;;;;;21.30;16.20;;;15.70;94.30;;;;;;4865183;29;20468;-91
2021/10/23 11:17:48;;;;;;;23.90;14.90;;;16.80;93.50;;;;;;4864915;29;20442;-92
2021/10/23 11:20:34;;;;;;;17.80;15.70;;;16.00;94.70;;;;;;4955913;23;21541;-90
2021/10/23 11:23:23;;;;;;;20.43;15.10;;;18.30;93.60;;;;;;4869263;29;20484;-93
2021/10/23 11:26:17;;;;;;;15.60;12.43;;;16.10;90.10;;;;;;4897957;29;20493;-92
2021/10/23 11:28:49;;;;;;;20.47;12.60;;;18.80;91.60;;;;;;4881793;29;20434;-92
2021/10/23 11:31:27;;;;;;;23.37;17.40;;;16.00;93.10;;;;;;5164116;23;20542;-93
2021/10/23 11:34:28;;;;;;;20.13;12.40;;;18.60;90.20;;;;;;4900902;29;20453;-93
2021/10/23 11:37:45;;;;;;;15.00;11.50;;;15.00;82.30;;;;;;4900913;29;20420;-90
2021/10/23 11:40:13;;;;;;;13.53;9.50;;;17.10;82.60;;;;;;4895966;29;20458;-89
2021/10/23 11:43:15;;;;;;;11.47;9.43;;;17.00;86.40;;;;;;4899675;29;20476;-90
2021/10/23 11:45:46;;;;;;;12.70;9.30;;;15.60;82.50;;;;;;4895223;29;20553;-93
2021/10/23 11:48:17;;;;;;;10.70;8.73;;;15.50;88.80;;;;;;4942246;23;20478;-93
2021/10/23 11:50:49;;;;;;;12.93;8.67;;;14.30;85.00;;;;;;4898776;29;20493;-91
2021/10/23 11:53:21;;;;;;;10.90;8.50;;;15.30;84.40;;;;;;4900149;29;20445;-91
2021/10/23 11:56:07;;;;;;;10.37;9.37;;;16.40;85.50;;;;;;4897801;29;20522;-91
2021/10/23 12:01:29;;;;;;;7.80;6.93;;;15.60;87.40;;;;;;4913852;23;20482;-88
2021/10/23 12:04:44;;;;;;;9.33;6.63;;;15.10;78.90;;;;;;4898672;29;20489;-93
2021/10/23 12:07:50;;;;;;;6.20;5.70;;;15.60;76.80;;;;;;5134149;23;21451;-92
2021/10/23 12:10:24;;;;;;;10.13;5.70;;;;;;;;;;4881793;29;20478;-94
2021/10/23 12:12:54;;;;;;;6.50;5.53;;;15.50;79.80;;;;;;4891261;29;20406;-90
2021/10/23 12:15:22;;;;;;;8.00;7.40;;;17.40;90.40;;;;;;4892306;29;20467;-92
2021/10/23 12:18:34;;;;;;;8.00;5.70;;;16.60;91.00;;;;;;4879838;29;20438;-91
2021/10/23 12:24:37;;;;;;;8.13;5.60;;;17.00;88.40;;;;;;5011044;23;20572;-91
2021/10/23 12:27:29;;;;;;;7.80;6.47;;;15.00;87.10;;;;;;4884234;29;20422;-91
2021/10/23 12:30:20;;;;;;;5.90;5.47;;;15.30;88.00;;;;;;4935975;23;20524;-91
2021/10/23 12:32:49;;;;;;;6.50;5.97;;;15.20;91.70;;;;;;4883317;29;20438;-88
2021/10/23 12:35:38;;;;;;;6.40;5.80;;;15.30;92.70;;;;;;5117954;23;20555;-92
2021/10/23 12:38:11;;;;;;;5.97;5.37;;;15.10;90.90;;;;;;4881543;29;20439;-93
2021/10/23 12:40:59;;;;;;;10.83;6.33;;;16.90;87.20;;;;;;5059304;23;20647;-91
2021/10/23 12:43:29;;;;;;;5.33;4.83;;;15.00;87.20;;;;;;4943743;23;20480;-91
2021/10/23 12:46:34;;;;;;;10.20;7.60;;;16.90;90.50;;;;;;4899771;29;20429;-91
2021/10/23 12:49:04;;;;;;;3.80;3.50;;;14.80;91.30;;;;;;4898346;29;20493;-93
2021/10/23 12:54:09;;;;;;;5.30;3.60;;;14.90;82.60;;;;;;4953118;23;20489;-92
2021/10/23 12:57:23;;;;;;;5.07;3.20;;;16.80;87.50;;;;;;4899401;29;20417;-92
2021/10/23 12:59:51;;;;;;;3.60;3.17;;;15.00;83.00;;;;;;4898517;29;20489;-89
2021/10/23 13:02:20;;;;;;;4.23;3.60;;;14.10;77.20;;;;;;4882083;29;20473;-91
2021/10/23 13:04:59;;;;;;;2.03;1.90;;;16.10;79.10;;;;;;4898459;29;20442;-91
2021/10/23 13:07:52;;;;;;;1.80;1.70;;;15.30;73.30;;;;;;4882276;29;20417;-91
2021/10/23 13:10:59;;;;;;;8.30;2.43;;;16.80;71.70;;;;;;4880362;29;20465;-89
2021/10/23 13:13:28;;;;;;;3.60;2.20;;;17.20;70.80;;;;;;4882375;29;20484;-91
2021/10/23 13:15:54;;;;;;;3.60;2.20;;;17.30;68.30;;;;;;4898110;29;20433;-89
2021/10/23 13:18:34;;;;;;;4.30;2.17;;;20.30;63.10;;;;;;4881906;29;20430;-89
2021/10/23 13:23:37;;;;;;;2.17;2.03;;;17.60;57.10;;;;;;5017747;23;20482;-92
2021/10/23 13:28:39;;;;;;;2.70;2.60;;;17.80;57.50;;;;;;4840739;27;20481;-93
2021/10/23 13:31:05;;;;;;;2.57;2.37;;;;;;;;;;4897957;29;20490;-88
2021/10/23 13:33:43;;;;;;;1.57;1.57;;;18.70;53.20;;;;;;4898993;29;20165;-91
2021/10/23 13:36:25;;;;;;;2.30;2.20;;;18.80;53.10;;;;;;4898205;29;20452;-92
2021/10/23 13:39:28;;;;;;;1.50;1.50;;;18.80;52.00;;;;;;4898187;29;20425;-92
2021/10/23 13:41:54;;;;;;;1.10;1.10;;;20.10;51.50;;;;;;4895985;29;20457;-93
2021/10/23 13:44:58;;;;;;;1.90;1.67;;;22.60;48.90;;;;;;4875545;29;20545;-90
2021/10/23 13:47:24;;;;;;;2.30;1.53;;;20.30;44.50;;;;;;4879358;29;20537;-92
2021/10/23 13:49:53;;;;;;;1.80;1.67;;;20.50;47.40;;;;;;4879937;29;20452;-92
2021/10/23 13:52:20;;;;;;;1.43;1.33;;;20.00;47.20;;;;;;4864216;29;20506;-91
2021/10/23 13:54:48;;;;;;;6.20;1.70;;;21.60;47.20;;;;;;4882667;29;20431;-90
2021/10/23 13:57:25;;;;;;;3.13;2.30;;;20.40;44.20;;;;;;4882827;29;20547;-92
2021/10/23 14:00:08;;;;;;;2.97;2.87;;;22.20;44.70;;;;;;4884485;29;20409;-92
2021/10/23 14:02:45;;;;;;;3.20;3.00;;;24.70;43.20;;;;;;4867856;29;20500;-90
2021/10/23 14:05:13;;;;;;;3.10;2.87;;;23.40;43.60;;;;;;4884403;29;20418;-90
2021/10/23 14:07:54;;;;;;;2.20;2.10;;;20.50;42.50;;;;;;4863905;29;20431;-91
2021/10/23 14:10:24;;;;;;;2.20;2.00;;;22.50;43.90;;;;;;4883653;29;20410;-92
2021/10/23 14:12:57;;;;;;;2.30;2.20;;;21.50;43.60;;;;;;4867781;29;20435;-91
2021/10/23 14:15:28;;;;;;;1.80;1.80;;;21.10;42.60;;;;;;4924772;23;20482;-94